createdAt,value
2023-01-29T00:00:42.303Z,88756.00
2023-01-29T00:01:42.271Z,88756.00
2023-01-29T00:02:42.236Z,88756.00
2023-01-29T00:03:42.161Z,88758.00
2023-01-29T00:04:42.125Z,88754.00
2023-01-29T00:05:42.072Z,88758.00
2023-01-29T00:06:42.038Z,88761.00
2023-01-29T00:07:41.986Z,88758.00
2023-01-29T00:08:41.960Z,88761.00
2023-01-29T00:09:41.907Z,88763.00
2023-01-29T00:10:41.863Z,88763.00
2023-01-29T00:11:41.829Z,88769.00
2023-01-29T00:12:41.773Z,88765.00
2023-01-29T00:13:41.727Z,88769.00
2023-01-29T00:14:41.694Z,88767.00
2023-01-29T00:15:41.644Z,88765.00
2023-01-29T00:16:41.657Z,88769.00
2023-01-29T00:17:41.556Z,88773.00
2023-01-29T00:18:41.534Z,88771.00
2023-01-29T00:19:41.463Z,88771.00
2023-01-29T00:20:41.430Z,88771.00
2023-01-29T00:21:41.412Z,88771.00
2023-01-29T00:22:41.375Z,88773.00
2023-01-29T00:23:41.309Z,88775.00
2023-01-29T00:24:41.263Z,88775.00
2023-01-29T00:25:41.219Z,88773.00
2023-01-29T00:26:41.196Z,88769.00
2023-01-29T00:27:41.136Z,88771.00
2023-01-29T00:28:41.096Z,88775.00
2023-01-29T00:29:41.067Z,88775.00
2023-01-29T00:30:41.013Z,88777.00
2023-01-29T00:31:41.069Z,88777.00
2023-01-29T00:32:40.961Z,88775.00
2023-01-29T00:33:40.901Z,88777.00
2023-01-29T00:34:40.847Z,88773.00
2023-01-29T00:35:40.804Z,88773.00
2023-01-29T00:36:40.771Z,88769.00
2023-01-29T00:37:40.734Z,88765.00
2023-01-29T00:38:40.671Z,88763.00
2023-01-29T00:39:47.792Z,88765.00
2023-01-29T00:40:41.588Z,88767.00
2023-01-29T00:41:40.551Z,88763.00
2023-01-29T00:42:40.537Z,88765.00
2023-01-29T00:43:40.469Z,88763.00
2023-01-29T00:44:40.439Z,88760.00
2023-01-29T00:45:40.381Z,88761.00
2023-01-29T00:46:40.380Z,88763.00
2023-01-29T00:47:40.310Z,88761.00
2023-01-29T00:48:40.264Z,88758.00
2023-01-29T00:49:40.220Z,88758.00
2023-01-29T00:50:40.175Z,88760.00
2023-01-29T00:51:40.140Z,88761.00
2023-01-29T00:52:40.086Z,88760.00
2023-01-29T00:53:40.053Z,88760.00
2023-01-29T00:54:39.991Z,88756.00
2023-01-29T00:55:39.952Z,88756.00
2023-01-29T00:56:39.904Z,88756.00
2023-01-29T00:57:39.882Z,88758.00
2023-01-29T00:58:39.821Z,88758.00
2023-01-29T00:59:39.794Z,88754.00
2023-01-29T01:00:39.805Z,88750.00
2023-01-29T01:01:39.782Z,88752.00
2023-01-29T01:02:39.664Z,88754.00
2023-01-29T01:03:39.613Z,88748.00
2023-01-29T01:04:39.583Z,88750.00
2023-01-29T01:05:39.556Z,88748.00
2023-01-29T01:06:39.504Z,88748.00
2023-01-29T01:07:39.452Z,88750.00
2023-01-29T01:08:39.412Z,88752.00
2023-01-29T01:09:39.379Z,88750.00
2023-01-29T01:10:39.325Z,88744.00
2023-01-29T01:11:39.284Z,88744.00
2023-01-29T01:12:39.251Z,88740.00
2023-01-29T01:13:39.195Z,88746.00
2023-01-29T01:14:39.150Z,88744.00
2023-01-29T01:15:39.122Z,88740.00
2023-01-29T01:16:39.091Z,88740.00
2023-01-29T01:17:39.043Z,88738.00
2023-01-29T01:18:38.969Z,88738.00
2023-01-29T01:19:38.937Z,88736.00
2023-01-29T01:20:38.891Z,88736.00
2023-01-29T01:21:38.853Z,88734.00
2023-01-29T01:22:38.797Z,88734.00
2023-01-29T01:23:38.768Z,88736.00
2023-01-29T01:24:38.723Z,88738.00
2023-01-29T01:25:38.675Z,88742.00
2023-01-29T01:26:38.627Z,88742.00
2023-01-29T01:27:38.591Z,88742.00
2023-01-29T01:28:38.546Z,88742.00
2023-01-29T01:29:38.494Z,88742.00
2023-01-29T01:30:38.456Z,88742.00
2023-01-29T01:31:38.432Z,88740.00
2023-01-29T01:32:38.364Z,88740.00
2023-01-29T01:33:38.305Z,88736.00
2023-01-29T01:34:38.257Z,88736.00
2023-01-29T01:35:38.206Z,88740.00
2023-01-29T01:36:38.164Z,88740.00
2023-01-29T01:37:38.123Z,88742.00
2023-01-29T01:38:38.065Z,88742.00
2023-01-29T01:39:38.029Z,88744.00
2023-01-29T01:40:37.969Z,88746.00
2023-01-29T01:41:37.940Z,88748.00
2023-01-29T01:42:37.897Z,88748.00
2023-01-29T01:43:37.854Z,88748.00
2023-01-29T01:44:37.806Z,88750.00
2023-01-29T01:45:37.823Z,88754.00
2023-01-29T01:46:37.713Z,88754.00
2023-01-29T01:47:37.672Z,88760.00
2023-01-29T01:48:37.612Z,88760.00
2023-01-29T01:49:37.570Z,88760.00
2023-01-29T01:50:37.529Z,88756.00
2023-01-29T01:51:37.487Z,88760.00
2023-01-29T01:52:37.433Z,88763.00
2023-01-29T01:53:37.384Z,88763.00
2023-01-29T01:54:37.334Z,88761.00
2023-01-29T01:55:37.292Z,88761.00
2023-01-29T01:56:37.248Z,88761.00
2023-01-29T01:57:37.208Z,88763.00
2023-01-29T01:58:37.165Z,88767.00
2023-01-29T01:59:37.124Z,88765.00
2023-01-29T02:00:37.153Z,88763.00
2023-01-29T02:01:37.021Z,88761.00
2023-01-29T02:02:36.988Z,88758.00
2023-01-29T02:03:36.928Z,88756.00
2023-01-29T02:04:36.898Z,88763.00
2023-01-29T02:05:36.838Z,88763.00
2023-01-29T02:06:36.788Z,88761.00
2023-01-29T02:07:36.759Z,88761.00
2023-01-29T02:08:36.715Z,88761.00
2023-01-29T02:09:36.677Z,88765.00
2023-01-29T02:10:36.622Z,88767.00
2023-01-29T02:11:36.595Z,88769.00
2023-01-29T02:12:36.543Z,88767.00
2023-01-29T02:13:36.497Z,88765.00
2023-01-29T02:14:36.442Z,88763.00
2023-01-29T02:15:36.409Z,88769.00
2023-01-29T02:16:36.355Z,88769.00
2023-01-29T02:17:36.342Z,88771.00
2023-01-29T02:18:36.257Z,88771.00
2023-01-29T02:19:36.191Z,88771.00
2023-01-29T02:20:36.146Z,88775.00
2023-01-29T02:21:36.088Z,88777.00
2023-01-29T02:22:36.046Z,88779.00
2023-01-29T02:23:36.026Z,88779.00
2023-01-29T02:24:35.985Z,88777.00
2023-01-29T02:25:35.901Z,88779.00
2023-01-29T02:26:35.855Z,88781.00
2023-01-29T02:27:35.819Z,88783.00
2023-01-29T02:28:35.794Z,88783.00
2023-01-29T02:29:35.718Z,88781.00
2023-01-29T02:30:35.659Z,88783.00
2023-01-29T02:31:35.680Z,88783.00
2023-01-29T02:32:35.569Z,88783.00
2023-01-29T02:33:35.529Z,88785.00
2023-01-29T02:34:35.492Z,88785.00
2023-01-29T02:35:35.438Z,88781.00
2023-01-29T02:36:35.408Z,88781.00
2023-01-29T02:37:35.352Z,88781.00
2023-01-29T02:38:35.307Z,88783.00
2023-01-29T02:39:35.275Z,88783.00
2023-01-29T02:40:35.216Z,88781.00
2023-01-29T02:41:35.187Z,88781.00
2023-01-29T02:42:35.123Z,88779.00
2023-01-29T02:43:35.071Z,88779.00
2023-01-29T02:45:35.001Z,88781.00
2023-01-29T02:46:34.956Z,88779.00
2023-01-29T02:47:34.913Z,88779.00
2023-01-29T02:48:34.865Z,88781.00
2023-01-29T02:49:34.828Z,88781.00
2023-01-29T02:50:34.768Z,88779.00
2023-01-29T02:51:34.734Z,88779.00
2023-01-29T02:52:34.674Z,88777.00
2023-01-29T02:53:34.637Z,88773.00
2023-01-29T02:54:34.589Z,88773.00
2023-01-29T02:55:34.530Z,88775.00
2023-01-29T02:56:34.494Z,88775.00
2023-01-29T02:57:34.453Z,88775.00
2023-01-29T02:58:34.399Z,88775.00
2023-01-29T02:59:34.348Z,88773.00
2023-01-29T03:00:34.316Z,88771.00
2023-01-29T03:01:34.255Z,88777.00
2023-01-29T03:02:34.302Z,88779.00
2023-01-29T03:03:34.152Z,88775.00
2023-01-29T03:04:34.101Z,88775.00
2023-01-29T03:05:34.062Z,88771.00
2023-01-29T03:06:34.006Z,88777.00
2023-01-29T03:07:33.971Z,88777.00
2023-01-29T03:08:33.913Z,88779.00
2023-01-29T03:09:33.892Z,88779.00
2023-01-29T03:10:33.820Z,88779.00
2023-01-29T03:11:33.797Z,88779.00
2023-01-29T03:12:33.801Z,88783.00
2023-01-29T03:13:33.690Z,88789.00
2023-01-29T03:14:33.635Z,88787.00
2023-01-29T03:15:33.584Z,88791.00
2023-01-29T03:16:33.569Z,88791.00
2023-01-29T03:17:33.485Z,88791.00
2023-01-29T03:18:33.458Z,88797.00
2023-01-29T03:19:33.390Z,88793.00
2023-01-29T03:20:33.377Z,88793.00
2023-01-29T03:21:33.287Z,88795.00
2023-01-29T03:22:33.238Z,88801.00
2023-01-29T03:23:33.183Z,88807.00
2023-01-29T03:24:33.172Z,88807.00
2023-01-29T03:25:33.093Z,88807.00
2023-01-29T03:26:33.046Z,88811.00
2023-01-29T03:27:32.985Z,88809.00
2023-01-29T03:28:32.939Z,88809.00
2023-01-29T03:29:32.891Z,88809.00
2023-01-29T03:30:32.844Z,88811.00
2023-01-29T03:31:32.905Z,88809.00
2023-01-29T03:32:32.752Z,88805.00
2023-01-29T03:33:32.810Z,88803.00
2023-01-29T03:34:32.665Z,88803.00
2023-01-29T03:35:32.650Z,88803.00
2023-01-29T03:36:32.581Z,88805.00
2023-01-29T03:37:32.531Z,88805.00
2023-01-29T03:38:32.534Z,88805.00
2023-01-29T03:39:32.451Z,88805.00
2023-01-29T03:40:32.417Z,88803.00
2023-01-29T03:41:32.365Z,88805.00
2023-01-29T03:42:32.320Z,88807.00
2023-01-29T03:43:32.291Z,88807.00
2023-01-29T03:44:32.236Z,88807.00
2023-01-29T03:45:32.230Z,88809.00
2023-01-29T03:46:32.144Z,88809.00
2023-01-29T03:47:32.094Z,88813.00
2023-01-29T03:48:32.041Z,88813.00
2023-01-29T03:49:31.990Z,88813.00
2023-01-29T03:50:31.956Z,88816.00
2023-01-29T03:51:31.911Z,88811.00
2023-01-29T03:52:31.855Z,88811.00
2023-01-29T03:53:31.820Z,88816.00
2023-01-29T03:54:31.774Z,88820.00
2023-01-29T03:55:31.732Z,88820.00
2023-01-29T03:56:31.679Z,88820.00
2023-01-29T03:57:31.638Z,88818.00
2023-01-29T03:58:31.597Z,88818.00
2023-01-29T03:59:31.564Z,88820.00
2023-01-29T04:00:31.520Z,88820.00
2023-01-29T04:01:31.473Z,88818.00
2023-01-29T04:02:31.408Z,88816.00
2023-01-29T04:03:31.364Z,88818.00
2023-01-29T04:04:31.331Z,88816.00
2023-01-29T04:05:31.274Z,88816.00
2023-01-29T04:06:31.221Z,88816.00
2023-01-29T04:07:31.185Z,88811.00
2023-01-29T04:08:31.140Z,88803.00
2023-01-29T04:09:31.101Z,88807.00
2023-01-29T04:10:31.053Z,88807.00
2023-01-29T04:11:31.010Z,88809.00
2023-01-29T04:12:30.967Z,88805.00
2023-01-29T04:13:30.921Z,88803.00
2023-01-29T04:14:30.886Z,88803.00
2023-01-29T04:15:30.826Z,88797.00
2023-01-29T04:16:30.850Z,88799.00
2023-01-29T04:17:30.742Z,88797.00
2023-01-29T04:18:30.698Z,88795.00
2023-01-29T04:19:30.659Z,88793.00
2023-01-29T04:20:30.611Z,88789.00
2023-01-29T04:21:30.560Z,88787.00
2023-01-29T04:22:30.512Z,88779.00
2023-01-29T04:23:30.460Z,88787.00
2023-01-29T04:24:30.463Z,88787.00
2023-01-29T04:25:30.365Z,88785.00
2023-01-29T04:26:30.337Z,88789.00
2023-01-29T04:27:30.266Z,88789.00
2023-01-29T04:28:30.224Z,88789.00
2023-01-29T04:29:30.423Z,88793.00
2023-01-29T04:30:30.129Z,88793.00
2023-01-29T04:31:30.153Z,88787.00
2023-01-29T04:32:30.051Z,88787.00
2023-01-29T04:33:29.999Z,88787.00
2023-01-29T04:34:29.952Z,88781.00
2023-01-29T04:35:29.911Z,88785.00
2023-01-29T04:36:29.858Z,88785.00
2023-01-29T04:37:29.822Z,88785.00
2023-01-29T04:38:29.766Z,88785.00
2023-01-29T04:39:29.723Z,88785.00
2023-01-29T04:40:29.669Z,88785.00
2023-01-29T04:41:29.641Z,88783.00
2023-01-29T04:42:29.595Z,88785.00
2023-01-29T04:43:29.535Z,88785.00
2023-01-29T04:44:29.491Z,88787.00
2023-01-29T04:45:29.448Z,88785.00
2023-01-29T04:46:29.393Z,88789.00
2023-01-29T04:47:29.366Z,88789.00
2023-01-29T04:48:29.289Z,88785.00
2023-01-29T04:49:29.244Z,88789.00
2023-01-29T04:50:29.217Z,88785.00
2023-01-29T04:51:29.161Z,88785.00
2023-01-29T04:52:29.127Z,88783.00
2023-01-29T04:53:29.078Z,88787.00
2023-01-29T04:54:29.039Z,88789.00
2023-01-29T04:55:29.007Z,88783.00
2023-01-29T04:56:28.943Z,88785.00
2023-01-29T04:57:28.898Z,88783.00
2023-01-29T04:58:28.865Z,88785.00
2023-01-29T04:59:28.812Z,88785.00
2023-01-29T05:00:28.778Z,88785.00
2023-01-29T05:01:28.736Z,88781.00
2023-01-29T05:02:28.708Z,88781.00
2023-01-29T05:03:28.613Z,88783.00
2023-01-29T05:04:28.582Z,88785.00
2023-01-29T05:05:28.533Z,88787.00
2023-01-29T05:06:28.479Z,88787.00
2023-01-29T05:07:28.445Z,88787.00
2023-01-29T05:08:28.407Z,88781.00
2023-01-29T05:09:28.348Z,88787.00
2023-01-29T05:10:28.318Z,88789.00
2023-01-29T05:11:28.270Z,88789.00
2023-01-29T05:12:28.224Z,88789.00
2023-01-29T05:13:28.176Z,88789.00
2023-01-29T05:14:28.137Z,88789.00
2023-01-29T05:15:28.089Z,88785.00
2023-01-29T05:16:28.048Z,88789.00
2023-01-29T05:17:27.995Z,88789.00
2023-01-29T05:18:27.956Z,88789.00
2023-01-29T05:19:27.927Z,88789.00
2023-01-29T05:20:27.877Z,88789.00
2023-01-29T05:21:27.821Z,88791.00
2023-01-29T05:22:27.790Z,88789.00
2023-01-29T05:23:27.741Z,88793.00
2023-01-29T05:24:27.732Z,88795.00
2023-01-29T05:25:27.644Z,88793.00
2023-01-29T05:26:27.620Z,88795.00
2023-01-29T05:27:27.550Z,88797.00
2023-01-29T05:28:27.538Z,88797.00
2023-01-29T05:29:27.465Z,88797.00
2023-01-29T05:30:27.433Z,88799.00
2023-01-29T05:31:27.536Z,88803.00
2023-01-29T05:32:27.336Z,88803.00
2023-01-29T05:33:27.299Z,88805.00
2023-01-29T05:34:27.248Z,88807.00
2023-01-29T05:35:27.203Z,88815.00
2023-01-29T05:36:27.169Z,88811.00
2023-01-29T05:37:27.133Z,88815.00
2023-01-29T05:38:27.084Z,88818.00
2023-01-29T05:39:27.031Z,88818.00
2023-01-29T05:40:26.984Z,88820.00
2023-01-29T05:41:26.939Z,88824.00
2023-01-29T05:42:26.902Z,88826.00
2023-01-29T05:43:26.854Z,88820.00
2023-01-29T05:44:26.809Z,88824.00
2023-01-29T05:45:26.763Z,88828.00
2023-01-29T05:46:26.735Z,88834.00
2023-01-29T05:47:26.676Z,88834.00
2023-01-29T05:48:26.653Z,88836.00
2023-01-29T05:49:26.593Z,88832.00
2023-01-29T05:50:26.547Z,88828.00
2023-01-29T05:51:26.505Z,88828.00
2023-01-29T05:52:26.465Z,88838.00
2023-01-29T05:53:26.424Z,88840.00
2023-01-29T05:54:26.381Z,88838.00
2023-01-29T05:55:26.325Z,88838.00
2023-01-29T05:56:26.294Z,88842.00
2023-01-29T05:57:26.262Z,88836.00
2023-01-29T05:58:26.220Z,88844.00
2023-01-29T05:59:26.181Z,88848.00
2023-01-29T06:00:26.128Z,88848.00
2023-01-29T06:01:26.080Z,88850.00
2023-01-29T06:02:26.056Z,88848.00
2023-01-29T06:03:26.002Z,88848.00
2023-01-29T06:04:25.966Z,88846.00
2023-01-29T06:05:25.918Z,88852.00
2023-01-29T06:06:25.875Z,88850.00
2023-01-29T06:07:25.841Z,88848.00
2023-01-29T06:08:25.810Z,88842.00
2023-01-29T06:09:25.754Z,88842.00
2023-01-29T06:10:25.714Z,88840.00
2023-01-29T06:11:25.673Z,88842.00
2023-01-29T06:12:25.654Z,88844.00
2023-01-29T06:13:25.588Z,88844.00
2023-01-29T06:14:25.547Z,88844.00
2023-01-29T06:15:25.529Z,88846.00
2023-01-29T06:16:25.530Z,88846.00
2023-01-29T06:17:25.429Z,88848.00
2023-01-29T06:18:25.392Z,88844.00
2023-01-29T06:19:25.350Z,88844.00
2023-01-29T06:20:25.303Z,88846.00
2023-01-29T06:21:25.262Z,88846.00
2023-01-29T06:22:25.219Z,88848.00
2023-01-29T06:23:25.168Z,88850.00
2023-01-29T06:24:25.170Z,88852.00
2023-01-29T06:25:25.084Z,88848.00
2023-01-29T06:26:25.050Z,88846.00
2023-01-29T06:27:25.003Z,88848.00
2023-01-29T06:28:24.957Z,88850.00
2023-01-29T06:29:24.904Z,88854.00
2023-01-29T06:30:24.882Z,88854.00
2023-01-29T06:31:37.736Z,88848.00
2023-01-29T06:32:25.817Z,88854.00
2023-01-29T06:33:24.738Z,88850.00
2023-01-29T06:34:24.691Z,88852.00
2023-01-29T06:35:24.657Z,88858.00
2023-01-29T06:36:24.618Z,88860.00
2023-01-29T06:37:24.586Z,88856.00
2023-01-29T06:38:24.545Z,88856.00
2023-01-29T06:39:24.482Z,88858.00
2023-01-29T06:40:24.445Z,88852.00
2023-01-29T06:41:24.393Z,88858.00
2023-01-29T06:42:24.362Z,88860.00
2023-01-29T06:43:24.312Z,88856.00
2023-01-29T06:44:24.274Z,88856.00
2023-01-29T06:45:24.265Z,88858.00
2023-01-29T06:46:24.186Z,88860.00
2023-01-29T06:47:24.139Z,88858.00
2023-01-29T06:48:24.104Z,88858.00
2023-01-29T06:49:24.050Z,88864.00
2023-01-29T06:50:24.011Z,88860.00
2023-01-29T06:51:23.970Z,88858.00
2023-01-29T06:52:23.930Z,88860.00
2023-01-29T06:53:23.884Z,88858.00
2023-01-29T06:54:23.839Z,88860.00
2023-01-29T06:55:23.796Z,88856.00
2023-01-29T06:56:23.755Z,88864.00
2023-01-29T06:57:23.714Z,88862.00
2023-01-29T06:58:23.677Z,88864.00
2023-01-29T06:59:23.620Z,88869.00
2023-01-29T07:00:23.584Z,88871.00
2023-01-29T07:01:35.806Z,88873.00
2023-01-29T07:02:24.576Z,88869.00
2023-01-29T07:03:23.463Z,88873.00
2023-01-29T07:04:23.414Z,88879.00
2023-01-29T07:05:23.377Z,88881.00
2023-01-29T07:06:23.326Z,88877.00
2023-01-29T07:07:23.286Z,88883.00
2023-01-29T07:08:23.241Z,88881.00
2023-01-29T07:09:23.200Z,88873.00
2023-01-29T07:10:23.142Z,88875.00
2023-01-29T07:11:23.101Z,88881.00
2023-01-29T07:12:23.049Z,88881.00
2023-01-29T07:13:23.013Z,88879.00
2023-01-29T07:14:22.949Z,88877.00
2023-01-29T07:15:22.911Z,88877.00
2023-01-29T07:16:22.900Z,88875.00
2023-01-29T07:17:22.823Z,88875.00
2023-01-29T07:18:22.782Z,88879.00
2023-01-29T07:19:22.740Z,88879.00
2023-01-29T07:20:22.712Z,88877.00
2023-01-29T07:21:22.634Z,88875.00
2023-01-29T07:22:22.590Z,88873.00
2023-01-29T07:23:22.548Z,88871.00
2023-01-29T07:24:22.601Z,88866.00
2023-01-29T07:25:22.450Z,88864.00
2023-01-29T07:26:22.420Z,88869.00
2023-01-29T07:27:22.369Z,88869.00
2023-01-29T07:28:22.321Z,88875.00
2023-01-29T07:29:22.298Z,88875.00
2023-01-29T07:30:22.240Z,88877.00
2023-01-29T07:31:22.312Z,88877.00
2023-01-29T07:32:22.225Z,88873.00
2023-01-29T07:33:22.118Z,88875.00
2023-01-29T07:34:22.077Z,88873.00
2023-01-29T07:35:22.018Z,88875.00
2023-01-29T07:36:21.980Z,88871.00
2023-01-29T07:37:21.944Z,88873.00
2023-01-29T07:38:21.910Z,88871.00
2023-01-29T07:39:21.861Z,88866.00
2023-01-29T07:40:21.812Z,88867.00
2023-01-29T07:41:21.774Z,88873.00
2023-01-29T07:42:21.733Z,88871.00
2023-01-29T07:43:21.677Z,88869.00
2023-01-29T07:44:21.636Z,88867.00
2023-01-29T07:45:21.590Z,88864.00
2023-01-29T07:46:21.559Z,88869.00
2023-01-29T07:47:21.512Z,88864.00
2023-01-29T07:48:21.472Z,88866.00
2023-01-29T07:49:21.433Z,88864.00
2023-01-29T07:50:21.396Z,88862.00
2023-01-29T07:51:21.357Z,88864.00
2023-01-29T07:52:22.399Z,88864.00
2023-01-29T07:53:21.253Z,88866.00
2023-01-29T07:54:21.204Z,88864.00
2023-01-29T07:55:21.166Z,88862.00
2023-01-29T07:56:21.120Z,88867.00
2023-01-29T07:57:21.066Z,88867.00
2023-01-29T07:58:21.016Z,88871.00
2023-01-29T07:59:20.976Z,88873.00
2023-01-29T08:00:20.936Z,88873.00
2023-01-29T08:01:20.955Z,88875.00
2023-01-29T08:02:20.878Z,88871.00
2023-01-29T08:03:20.827Z,88873.00
2023-01-29T08:04:20.751Z,88875.00
2023-01-29T08:05:20.762Z,88873.00
2023-01-29T08:06:20.644Z,88873.00
2023-01-29T08:07:20.603Z,88871.00
2023-01-29T08:08:20.568Z,88871.00
2023-01-29T08:09:20.536Z,88867.00
2023-01-29T08:10:20.635Z,88866.00
2023-01-29T08:11:20.440Z,88867.00
2023-01-29T08:12:20.374Z,88866.00
2023-01-29T08:13:20.329Z,88866.00
2023-01-29T08:14:20.280Z,88866.00
2023-01-29T08:15:20.236Z,88866.00
2023-01-29T08:16:20.188Z,88867.00
2023-01-29T08:17:20.141Z,88864.00
2023-01-29T08:18:20.103Z,88864.00
2023-01-29T08:19:20.059Z,88862.00
2023-01-29T08:20:20.191Z,88862.00
2023-01-29T08:21:19.979Z,88864.00
2023-01-29T08:22:19.929Z,88864.00
2023-01-29T08:23:19.877Z,88864.00
2023-01-29T08:24:19.886Z,88858.00
2023-01-29T08:25:19.809Z,88860.00
2023-01-29T08:26:19.750Z,88858.00
2023-01-29T08:27:19.694Z,88858.00
2023-01-29T08:28:19.651Z,88858.00
2023-01-29T08:29:19.605Z,88858.00
2023-01-29T08:30:19.586Z,88856.00
2023-01-29T08:31:19.515Z,88850.00
2023-01-29T08:32:19.480Z,88852.00
2023-01-29T08:33:26.437Z,88856.00
2023-01-29T08:34:20.373Z,88856.00
2023-01-29T08:35:19.660Z,88856.00
2023-01-29T08:36:19.282Z,88854.00
2023-01-29T08:37:19.247Z,88852.00
2023-01-29T08:38:19.188Z,88844.00
2023-01-29T08:39:19.147Z,88846.00
2023-01-29T08:40:19.407Z,88846.00
2023-01-29T08:41:19.054Z,88852.00
2023-01-29T08:42:19.015Z,88848.00
2023-01-29T08:43:18.957Z,88842.00
2023-01-29T08:44:18.929Z,88842.00
2023-01-29T08:45:18.859Z,88836.00
2023-01-29T08:46:18.844Z,88838.00
2023-01-29T08:47:18.759Z,88842.00
2023-01-29T08:48:18.726Z,88838.00
2023-01-29T08:49:18.657Z,88834.00
2023-01-29T08:50:19.048Z,88826.00
2023-01-29T08:51:18.556Z,88828.00
2023-01-29T08:52:18.506Z,88828.00
2023-01-29T08:53:18.457Z,88828.00
2023-01-29T08:54:18.404Z,88832.00
2023-01-29T08:55:18.732Z,88830.00
2023-01-29T08:56:18.297Z,88830.00
2023-01-29T08:57:18.244Z,88828.00
2023-01-29T08:58:18.190Z,88830.00
2023-01-29T08:59:18.134Z,88824.00
2023-01-29T09:00:18.552Z,88828.00
2023-01-29T09:01:18.056Z,88824.00
2023-01-29T09:02:18.010Z,88826.00
2023-01-29T09:03:17.926Z,88826.00
2023-01-29T09:04:17.865Z,88830.00
2023-01-29T09:05:18.285Z,88824.00
2023-01-29T09:06:17.762Z,88824.00
2023-01-29T09:07:17.694Z,88824.00
2023-01-29T09:08:17.635Z,88828.00
2023-01-29T09:09:17.597Z,88834.00
2023-01-29T09:10:17.526Z,88836.00
2023-01-29T09:11:17.462Z,88834.00
2023-01-29T09:12:17.399Z,88830.00
2023-01-29T09:13:17.343Z,88834.00
2023-01-29T09:14:17.285Z,88834.00
2023-01-29T09:15:17.716Z,88834.00
2023-01-29T09:16:17.193Z,88832.00
2023-01-29T09:17:17.145Z,88832.00
2023-01-29T09:18:17.044Z,88832.00
2023-01-29T09:19:16.981Z,88830.00
2023-01-29T09:20:16.919Z,88836.00
2023-01-29T09:21:16.863Z,88836.00
2023-01-29T09:22:16.797Z,88838.00
2023-01-29T09:23:16.729Z,88836.00
2023-01-29T09:24:16.660Z,88836.00
2023-01-29T09:25:16.780Z,88834.00
2023-01-29T09:26:16.625Z,88838.00
2023-01-29T09:27:16.465Z,88840.00
2023-01-29T09:28:16.401Z,88838.00
2023-01-29T09:29:16.343Z,88834.00
2023-01-29T09:30:16.302Z,88838.00
2023-01-29T09:31:16.269Z,88840.00
2023-01-29T09:32:19.827Z,88840.00
2023-01-29T09:33:17.092Z,88838.00
2023-01-29T09:34:16.024Z,88836.00
2023-01-29T09:35:16.259Z,88834.00
2023-01-29T09:36:15.912Z,88834.00
2023-01-29T09:37:15.836Z,88836.00
2023-01-29T09:38:15.769Z,88836.00
2023-01-29T09:39:15.702Z,88836.00
2023-01-29T09:40:15.631Z,88830.00
2023-01-29T09:41:15.576Z,88828.00
2023-01-29T09:42:15.500Z,88826.00
2023-01-29T09:43:15.440Z,88828.00
2023-01-29T11:27:06.174Z,88756.00
2023-01-29T11:28:06.021Z,88756.00
2023-01-29T11:29:05.862Z,88758.00
2023-01-29T11:30:05.720Z,88758.00
2023-01-29T11:31:05.686Z,88756.00
2023-01-29T11:32:05.395Z,88758.00
2023-01-29T12:05:00.015Z,88705.00
2023-01-29T12:05:59.926Z,88703.00
2023-01-29T12:06:59.678Z,88707.00
2023-01-29T12:07:59.511Z,88701.00
2023-01-29T12:08:59.352Z,88699.00
2023-01-29T12:09:59.202Z,88699.00
2023-01-29T12:10:59.060Z,88697.00
2023-01-29T12:11:58.911Z,88699.00
2023-01-29T12:12:58.790Z,88695.00
2023-01-29T12:13:58.652Z,88692.00
2023-01-29T12:14:58.527Z,88692.00
2023-01-29T12:15:58.434Z,88688.00
2023-01-29T12:16:58.286Z,88690.00
2023-01-29T12:17:58.166Z,88693.00
2023-01-29T12:18:58.059Z,88688.00
2023-01-29T12:19:57.930Z,88686.00
2023-01-29T12:20:57.820Z,88682.00
2023-01-29T12:21:57.710Z,88682.00
2023-01-29T12:22:57.557Z,88684.00
2023-01-29T12:23:57.429Z,88682.00
2023-01-29T12:24:57.280Z,88680.00
2023-01-29T12:25:57.143Z,88678.00
2023-01-29T12:26:56.999Z,88678.00
2023-01-29T12:27:56.846Z,88680.00
2023-01-29T12:28:56.698Z,88682.00
2023-01-29T12:29:56.537Z,88674.00
2023-01-29T12:30:56.395Z,88674.00
2023-01-29T12:31:56.234Z,88676.00
2023-01-29T12:32:56.092Z,88678.00
2023-01-29T12:33:55.960Z,88676.00
2023-01-29T12:34:55.829Z,88676.00
2023-01-29T12:35:55.703Z,88674.00
2023-01-29T12:36:55.595Z,88672.00
2023-01-29T12:37:55.490Z,88670.00
2023-01-29T13:25:51.729Z,88646.00
2023-01-29T14:04:49.183Z,88625.00
2023-01-29T14:12:48.650Z,88623.00
2023-01-29T14:13:48.583Z,88623.00
2023-01-29T14:14:48.525Z,88625.00
2023-01-29T14:15:48.448Z,88623.00
2023-01-29T14:16:48.391Z,88623.00
2023-01-29T14:17:48.320Z,88625.00
2023-01-29T14:18:48.257Z,88625.00
2023-01-29T14:19:48.191Z,88625.00
2023-01-29T14:20:48.125Z,88621.00
2023-01-29T14:21:48.200Z,88623.00
2023-01-29T14:22:47.996Z,88623.00
2023-01-29T14:23:47.964Z,88621.00
2023-01-29T14:24:47.889Z,88615.00
2023-01-29T14:25:47.832Z,88617.00
2023-01-29T14:26:47.816Z,88617.00
2023-01-29T14:27:47.689Z,88617.00
2023-01-29T14:28:47.619Z,88613.00
2023-01-29T14:29:47.557Z,88613.00
2023-01-29T14:30:47.637Z,88613.00
2023-01-29T14:31:47.444Z,88613.00
2023-01-29T14:32:47.389Z,88619.00
2023-01-29T14:33:47.301Z,88615.00
2023-01-29T14:34:47.231Z,88613.00
2023-01-29T14:35:47.193Z,88615.00
2023-01-29T14:36:47.097Z,88611.00
2023-01-29T14:37:47.036Z,88613.00
2023-01-29T14:38:46.983Z,88613.00
2023-01-29T14:39:46.933Z,88613.00
2023-01-29T14:40:46.850Z,88613.00
2023-01-29T14:41:46.794Z,88611.00
2023-01-29T14:42:46.719Z,88611.00
2023-01-29T14:43:46.655Z,88613.00
2023-01-29T14:44:46.588Z,88611.00
2023-01-29T14:45:46.553Z,88615.00
2023-01-29T14:46:46.458Z,88611.00
2023-01-29T14:47:46.403Z,88611.00
2023-01-29T14:48:46.336Z,88617.00
2023-01-29T14:49:46.284Z,88615.00
2023-01-29T14:50:46.228Z,88615.00
2023-01-29T14:51:46.156Z,88615.00
2023-01-29T14:52:46.092Z,88613.00
2023-01-29T14:53:46.036Z,88615.00
2023-01-29T14:54:45.980Z,88619.00
2023-01-29T14:55:45.968Z,88619.00
2023-01-29T14:56:45.873Z,88617.00
2023-01-29T14:57:45.791Z,88617.00
2023-01-29T14:58:45.734Z,88615.00
2023-01-29T14:59:45.680Z,88617.00
2023-01-29T15:00:45.628Z,88615.00
2023-01-29T15:01:45.583Z,88619.00
2023-01-29T15:02:45.647Z,88617.00
2023-01-29T15:03:45.464Z,88615.00
2023-01-29T15:04:45.399Z,88617.00
2023-01-29T15:05:45.349Z,88623.00
2023-01-29T15:06:45.282Z,88625.00
2023-01-29T15:07:45.224Z,88623.00
2023-01-29T15:08:45.195Z,88623.00
2023-01-29T15:09:45.130Z,88623.00
2023-01-29T15:10:45.041Z,88625.00
2023-01-29T15:11:44.992Z,88629.00
2023-01-29T15:12:44.914Z,88627.00
2023-01-29T15:13:44.860Z,88627.00
2023-01-29T15:14:44.788Z,88623.00
2023-01-29T15:15:44.787Z,88627.00
2023-01-29T15:16:44.669Z,88633.00
2023-01-29T15:17:44.638Z,88633.00
2023-01-29T15:18:44.573Z,88633.00
2023-01-29T15:19:44.527Z,88633.00
2023-01-29T15:20:44.477Z,88631.00
2023-01-29T15:21:44.396Z,88637.00
2023-01-29T15:22:44.336Z,88639.00
2023-01-29T15:23:44.292Z,88637.00
2023-01-29T15:24:44.223Z,88639.00
2023-01-29T15:25:44.182Z,88637.00
2023-01-29T15:26:44.113Z,88639.00
2023-01-29T15:27:44.040Z,88642.00
2023-01-29T15:28:47.227Z,88644.00
2023-01-29T15:29:44.926Z,88644.00
2023-01-29T15:30:43.988Z,88642.00
2023-01-29T15:31:45.734Z,88644.00